Time;durP1;ratioP1;P1;durP2;ratioP2;P2;SDS_P1;SDS_P2;PMS_P1;PMS_P2;Temp;Humidity;BMP_temperature;BMP_pressure;BME280_temperature;BME280_humidity;BME280_pressure;Samples;Min_cycle;Max_cycle;Signal;HPM_P1;HPM_P2
2024/04/04 00:00:59;;;;;;;3.20;1.80;;;23.90;61.20;;;;;;5078998;28;20536;-84
2024/04/04 00:03:28;;;;;;;4.20;1.87;;;23.90;61.10;;;;;;5079003;28;20201;-84
2024/04/04 00:05:54;;;;;;;2.60;1.40;;;23.90;60.90;;;;;;5080620;28;20480;-84
2024/04/04 00:08:20;;;;;;;3.43;1.70;;;23.90;61.10;;;;;;5080406;28;20464;-84
2024/04/04 00:10:48;;;;;;;2.17;1.00;;;23.80;60.90;;;;;;5078584;28;20451;-84
2024/04/04 00:13:14;;;;;;;1.90;1.13;;;23.80;61.00;;;;;;5074598;28;20803;-84
2024/04/04 00:15:41;;;;;;;2.53;1.30;;;23.80;61.10;;;;;;5057096;28;20536;-84
2024/04/04 00:18:07;;;;;;;2.43;1.40;;;23.80;61.10;;;;;;5058479;28;20769;-84
2024/04/04 00:20:40;;;;;;;4.83;1.30;;;23.80;61.10;;;;;;5058712;28;20437;-83
2024/04/04 00:23:05;;;;;;;2.77;1.40;;;23.80;61.00;;;;;;5057222;28;20551;-85
2024/04/04 00:25:32;;;;;;;5.70;1.27;;;23.80;61.00;;;;;;5082207;22;20495;-84
2024/04/04 00:27:58;;;;;;;3.70;1.43;;;23.90;61.10;;;;;;5078792;28;20230;-85
2024/04/04 00:30:25;;;;;;;3.20;1.33;;;23.80;61.20;;;;;;5076749;28;20451;-85
2024/04/04 00:32:53;;;;;;;2.97;1.40;;;23.80;61.00;;;;;;5088571;22;20205;-84
2024/04/04 00:35:20;;;;;;;3.10;1.50;;;23.80;61.10;;;;;;5079776;28;20452;-85
2024/04/04 00:37:47;;;;;;;3.20;1.30;;;23.80;61.20;;;;;;5075430;28;20432;-85
2024/04/04 00:40:14;;;;;;;2.73;1.20;;;23.70;61.00;;;;;;5078333;28;20486;-84
2024/04/04 00:42:40;;;;;;;4.37;1.63;;;23.70;61.00;;;;;;5076985;28;20413;-85
2024/04/04 00:45:07;;;;;;;2.60;1.60;;;23.70;61.10;;;;;;5078330;28;20423;-85
2024/04/04 00:47:33;;;;;;;2.63;1.33;;;23.70;60.90;;;;;;5078575;28;20233;-85
2024/04/04 00:50:00;;;;;;;3.30;1.20;;;23.70;60.90;;;;;;5079505;28;20475;-85
2024/04/04 00:52:26;;;;;;;2.27;1.30;;;23.70;61.20;;;;;;5079174;28;20424;-86
2024/04/04 00:54:57;;;;;;;3.50;1.27;;;23.70;61.20;;;;;;5071449;28;20461;-84
2024/04/04 00:57:23;;;;;;;2.07;1.10;;;23.70;61.10;;;;;;5075921;22;20230;-84
2024/04/04 00:59:51;;;;;;;2.17;1.17;;;23.70;61.20;;;;;;5058050;28;20795;-85
2024/04/04 01:02:17;;;;;;;3.53;1.23;;;23.60;60.90;;;;;;5057244;28;20521;-85
2024/04/04 01:04:44;;;;;;;2.73;1.50;;;23.60;60.90;;;;;;5057647;28;20445;-85
2024/04/04 01:07:11;;;;;;;2.57;1.10;;;23.60;61.10;;;;;;5057541;28;20312;-85
2024/04/04 01:09:38;;;;;;;3.03;1.20;;;23.60;61.00;;;;;;5058051;28;20540;-85
2024/04/04 01:12:06;;;;;;;2.93;1.23;;;23.60;61.40;;;;;;5057577;28;20445;-85
2024/04/04 01:14:33;;;;;;;2.43;1.27;;;23.60;61.30;;;;;;5056839;28;20480;-85
2024/04/04 01:17:00;;;;;;;2.93;1.23;;;23.60;61.10;;;;;;5056440;28;20446;-85
2024/04/04 01:19:26;;;;;;;2.17;1.10;;;23.60;61.20;;;;;;5055736;28;20445;-85
2024/04/04 01:21:52;;;;;;;2.90;1.20;;;23.60;61.10;;;;;;5057971;28;20443;-85
2024/04/04 01:24:20;;;;;;;2.97;1.20;;;23.60;61.00;;;;;;5056524;28;20524;-85
2024/04/04 01:26:46;;;;;;;3.50;1.70;;;23.60;61.10;;;;;;5059397;28;20190;-85
2024/04/04 01:29:13;;;;;;;1.97;1.10;;;23.60;61.10;;;;;;5068290;28;20440;-85
2024/04/04 01:31:39;;;;;;;2.10;1.37;;;23.60;60.90;;;;;;5076888;28;20443;-85
2024/04/04 01:34:05;;;;;;;2.57;1.20;;;23.60;60.90;;;;;;5076391;28;20804;-86
2024/04/04 01:36:31;;;;;;;2.67;1.20;;;23.60;60.80;;;;;;5076167;28;20190;-85
2024/04/04 01:38:58;;;;;;;3.00;1.10;;;23.70;61.00;;;;;;5077876;28;20447;-85
2024/04/04 01:41:25;;;;;;;2.10;1.30;;;23.60;61.00;;;;;;5078254;28;20436;-85
2024/04/04 01:43:52;;;;;;;2.93;0.90;;;23.60;60.80;;;;;;5081643;28;20439;-85
2024/04/04 01:46:18;;;;;;;1.87;1.20;;;23.80;61.00;;;;;;5083284;28;20444;-83
2024/04/04 01:48:44;;;;;;;2.40;1.80;;;23.60;60.80;;;;;;5078813;28;20896;-85
2024/04/04 01:51:10;;;;;;;2.10;1.03;;;23.70;60.70;;;;;;5076511;28;20198;-85
2024/04/04 01:53:38;;;;;;;1.80;1.00;;;23.70;60.70;;;;;;5077618;28;20442;-85
2024/04/04 01:56:04;;;;;;;2.00;1.00;;;23.70;60.60;;;;;;5079524;28;20208;-84
2024/04/04 01:58:32;;;;;;;2.80;1.20;;;23.70;60.50;;;;;;5086301;28;20436;-85
2024/04/04 02:00:58;;;;;;;1.97;1.00;;;23.70;60.60;;;;;;5080737;28;20436;-85
2024/04/04 02:03:25;;;;;;;2.03;1.13;;;23.70;60.30;;;;;;5080078;28;20942;-85
2024/04/04 02:05:50;;;;;;;1.90;1.10;;;23.80;60.50;;;;;;5080810;28;20568;-85
2024/04/04 02:08:17;;;;;;;2.07;1.00;;;23.70;60.50;;;;;;5080238;28;20480;-85
2024/04/04 02:10:43;;;;;;;1.93;1.10;;;23.70;60.30;;;;;;5079493;28;20530;-85
2024/04/04 02:13:10;;;;;;;2.63;1.00;;;23.70;60.40;;;;;;5079060;28;20451;-85
2024/04/04 02:15:41;;;;;;;2.27;1.20;;;23.80;60.50;;;;;;5080518;28;20205;-85
2024/04/04 02:18:11;;;;;;;2.17;1.00;;;23.80;60.30;;;;;;5079019;28;20868;-85
2024/04/04 02:20:37;;;;;;;2.03;1.07;;;23.70;60.40;;;;;;5078829;28;20531;-85
2024/04/04 02:23:04;;;;;;;4.40;1.20;;;23.70;60.40;;;;;;5079500;28;20464;-85
2024/04/04 02:25:29;;;;;;;2.00;0.90;;;23.70;60.20;;;;;;5078420;28;20696;-84
2024/04/04 02:27:56;;;;;;;1.83;1.03;;;23.80;60.40;;;;;;5082005;28;20478;-84
2024/04/04 02:30:22;;;;;;;2.70;1.70;;;23.80;60.20;;;;;;5076918;28;20194;-84
2024/04/04 02:32:50;;;;;;;2.20;1.10;;;23.70;60.30;;;;;;5077627;28;20444;-84
2024/04/04 02:35:17;;;;;;;2.97;1.20;;;23.80;60.30;;;;;;5078939;28;20436;-85
2024/04/04 02:37:44;;;;;;;1.80;0.90;;;23.80;60.40;;;;;;5079983;28;20491;-85
2024/04/04 02:40:10;;;;;;;2.07;1.30;;;23.80;60.30;;;;;;5080102;28;20444;-85
2024/04/04 02:42:38;;;;;;;1.70;1.03;;;23.80;60.30;;;;;;5077517;28;20962;-85
2024/04/04 02:45:04;;;;;;;1.80;1.00;;;23.80;60.20;;;;;;5093559;22;20213;-84
2024/04/04 02:47:31;;;;;;;1.60;0.90;;;23.80;60.20;;;;;;5061394;28;20484;-85
2024/04/04 02:49:58;;;;;;;2.13;1.10;;;23.80;60.10;;;;;;5061165;28;20782;-85
2024/04/04 02:52:25;;;;;;;2.80;1.30;;;23.80;60.00;;;;;;5086271;22;20465;-86
2024/04/04 02:54:51;;;;;;;2.30;1.03;;;23.80;60.00;;;;;;5079651;28;20520;-85
2024/04/04 02:57:18;;;;;;;1.90;1.10;;;23.80;60.10;;;;;;5070108;28;20426;-85
2024/04/04 02:59:44;;;;;;;2.37;0.97;;;23.80;60.30;;;;;;5059760;28;20463;-84
2024/04/04 03:02:11;;;;;;;2.00;1.00;;;23.80;60.10;;;;;;5077778;22;20567;-85
2024/04/04 03:04:37;;;;;;;1.60;0.90;;;23.70;59.90;;;;;;5080957;28;20573;-85
2024/04/04 03:07:06;;;;;;;2.23;1.17;;;23.80;60.20;;;;;;5088646;22;20487;-85
2024/04/04 03:09:32;;;;;;;3.17;1.30;;;23.70;60.00;;;;;;5083265;22;20492;-84
2024/04/04 03:11:59;;;;;;;2.10;1.00;;;23.70;60.00;;;;;;5061899;22;20555;-85
2024/04/04 03:14:24;;;;;;;1.93;1.07;;;23.70;60.00;;;;;;5046072;28;20430;-84
2024/04/04 03:16:51;;;;;;;2.87;1.13;;;23.70;60.20;;;;;;5042636;28;20541;-84
2024/04/04 03:19:17;;;;;;;2.00;1.10;;;23.70;60.00;;;;;;5043033;28;20227;-84
2024/04/04 03:21:44;;;;;;;1.67;1.03;;;23.70;60.10;;;;;;5040474;28;20450;-84
2024/04/04 03:24:11;;;;;;;1.70;0.90;;;23.70;60.00;;;;;;5040066;28;20211;-84
2024/04/04 03:26:38;;;;;;;1.70;1.10;;;23.70;60.20;;;;;;5089103;23;20495;-84
2024/04/04 03:29:04;;;;;;;1.50;0.80;;;23.70;60.10;;;;;;5086415;28;20490;-84
2024/04/04 03:31:31;;;;;;;2.00;0.90;;;23.70;60.30;;;;;;5068572;22;20490;-84
2024/04/04 03:33:56;;;;;;;3.87;1.10;;;23.70;60.00;;;;;;5039505;28;20199;-84
2024/04/04 03:36:23;;;;;;;2.07;1.00;;;23.80;60.30;;;;;;5050439;22;20476;-84
2024/04/04 03:38:50;;;;;;;2.30;1.00;;;23.70;60.10;;;;;;5057395;28;20195;-84
2024/04/04 03:41:19;;;;;;;2.50;1.13;;;23.70;60.10;;;;;;5057970;28;20495;-84
2024/04/04 03:43:46;;;;;;;1.97;1.00;;;23.70;60.00;;;;;;5058164;28;20804;-84
2024/04/04 03:46:12;;;;;;;1.60;0.90;;;23.70;60.20;;;;;;5058450;28;20864;-84
2024/04/04 03:48:38;;;;;;;2.20;1.07;;;23.70;60.30;;;;;;5059265;28;20520;-84
2024/04/04 03:51:04;;;;;;;1.73;0.90;;;23.70;60.20;;;;;;5056468;28;20294;-84
2024/04/04 03:53:31;;;;;;;2.10;1.20;;;23.70;60.40;;;;;;5059484;28;20488;-84
2024/04/04 03:55:57;;;;;;;1.77;0.90;;;23.70;60.20;;;;;;5059217;28;20468;-84
2024/04/04 03:58:25;;;;;;;1.70;1.00;;;23.80;60.50;;;;;;5061450;28;20424;-85
2024/04/04 04:00:51;;;;;;;2.00;1.10;;;23.70;60.20;;;;;;5059454;28;20201;-85
2024/04/04 04:03:18;;;;;;;3.53;1.10;;;23.70;60.40;;;;;;5056567;28;20437;-84
2024/04/04 04:05:44;;;;;;;2.00;1.00;;;23.80;60.50;;;;;;5056710;28;20277;-84
2024/04/04 04:08:11;;;;;;;2.13;1.00;;;23.70;60.40;;;;;;5057588;28;20481;-84
2024/04/04 04:10:37;;;;;;;1.90;1.00;;;23.70;60.30;;;;;;5055470;28;20449;-83
2024/04/04 04:13:05;;;;;;;1.90;1.10;;;23.70;60.30;;;;;;5056691;28;20445;-84
2024/04/04 04:15:32;;;;;;;1.80;0.90;;;23.70;60.40;;;;;;5055298;28;20441;-84
2024/04/04 04:17:58;;;;;;;1.60;0.70;;;23.70;60.40;;;;;;5056308;28;20445;-84
2024/04/04 04:23:10;;;;;;;2.30;0.97;;;23.70;60.30;;;;;;5056496;28;20892;-84
2024/04/04 04:25:37;;;;;;;1.80;0.90;;;23.70;60.40;;;;;;5055999;28;20484;-84
2024/04/04 04:28:03;;;;;;;1.97;1.00;;;23.70;60.30;;;;;;5055297;28;20481;-85
2024/04/04 04:30:30;;;;;;;1.80;0.80;;;23.70;60.30;;;;;;5055373;28;20452;-85
2024/04/04 04:32:57;;;;;;;1.60;1.00;;;23.70;60.30;;;;;;5055476;28;20437;-84
2024/04/04 04:35:24;;;;;;;1.60;0.90;;;23.70;60.20;;;;;;5055181;28;20445;-84
2024/04/04 04:37:51;;;;;;;1.80;0.97;;;23.80;60.40;;;;;;5070485;28;20448;-84
2024/04/04 04:40:17;;;;;;;1.70;0.90;;;23.80;60.40;;;;;;5075261;28;20432;-84
2024/04/04 04:42:43;;;;;;;1.60;0.90;;;23.70;61.20;;;;;;5077873;28;20433;-84
2024/04/04 04:45:10;;;;;;;1.50;0.80;;;23.80;60.40;;;;;;5074421;28;20539;-85
2024/04/04 04:47:36;;;;;;;2.00;0.90;;;23.80;60.40;;;;;;5074410;28;20206;-85
2024/04/04 04:50:05;;;;;;;2.10;1.10;;;23.80;60.40;;;;;;5076944;28;20498;-85
2024/04/04 04:52:31;;;;;;;1.60;0.90;;;23.70;60.30;;;;;;5076889;28;20202;-85
2024/04/04 04:54:58;;;;;;;2.00;1.17;;;23.70;60.40;;;;;;5083671;28;20452;-84
2024/04/04 04:57:23;;;;;;;1.50;0.80;;;23.70;60.40;;;;;;5074431;28;20194;-85
2024/04/04 04:59:50;;;;;;;1.90;1.00;;;23.70;60.40;;;;;;5078594;28;20436;-84
2024/04/04 05:02:18;;;;;;;2.27;0.80;;;23.70;60.30;;;;;;5075145;28;20209;-84
2024/04/04 05:04:45;;;;;;;2.10;1.00;;;23.70;60.40;;;;;;5074062;28;20448;-84
2024/04/04 05:07:12;;;;;;;2.00;1.10;;;23.70;60.40;;;;;;5086029;28;20439;-85
2024/04/04 05:09:39;;;;;;;2.23;0.97;;;23.80;60.50;;;;;;5096030;28;20540;-85
2024/04/04 05:12:05;;;;;;;2.07;1.10;;;23.70;60.40;;;;;;5079322;28;20428;-85
2024/04/04 05:14:32;;;;;;;1.80;1.00;;;23.70;60.50;;;;;;5075286;28;20444;-85
2024/04/04 05:17:47;;;;;;;1.50;0.67;;;23.70;60.60;;;;;;5074924;28;20436;-96
2024/04/04 05:20:14;;;;;;;1.90;1.10;;;23.70;60.30;;;;;;5074486;28;20479;-96
2024/04/04 05:22:42;;;;;;;3.23;1.00;;;23.70;59.50;;;;;;5075859;28;20532;-87
2024/04/04 05:25:13;;;;;;;2.93;0.83;;;23.70;59.40;;;;;;5074226;28;20463;-87
2024/04/04 05:27:40;;;;;;;1.60;1.07;;;23.80;60.20;;;;;;5074653;28;20433;-87
2024/04/04 05:30:10;;;;;;;2.33;1.20;;;23.80;60.50;;;;;;5077839;28;20807;-87
2024/04/04 05:32:37;;;;;;;1.70;1.20;;;23.70;60.30;;;;;;5078443;28;20459;-87
2024/04/04 05:35:04;;;;;;;1.90;1.07;;;23.70;60.30;;;;;;5077988;28;20923;-87
2024/04/04 05:37:30;;;;;;;2.10;1.03;;;23.70;60.30;;;;;;5077912;28;21017;-87
2024/04/04 05:39:58;;;;;;;2.23;1.13;;;23.70;60.50;;;;;;5078801;28;20953;-87
2024/04/04 05:42:27;;;;;;;2.00;1.20;;;23.80;60.60;;;;;;5078152;28;20438;-87
2024/04/04 05:44:53;;;;;;;1.90;1.10;;;23.80;60.70;;;;;;5077720;28;20443;-88
2024/04/04 05:47:19;;;;;;;2.40;1.20;;;23.90;60.90;;;;;;5078906;28;20449;-87
2024/04/04 05:49:45;;;;;;;1.80;1.00;;;23.80;60.70;;;;;;5078576;28;20379;-88
2024/04/04 05:52:13;;;;;;;3.30;1.43;;;23.80;60.70;;;;;;5078492;28;20447;-86
2024/04/04 05:54:39;;;;;;;1.80;1.20;;;23.80;61.70;;;;;;5080259;28;20720;-87
2024/04/04 05:57:07;;;;;;;2.17;1.10;;;23.80;61.00;;;;;;5080770;28;20450;-86
2024/04/04 05:59:33;;;;;;;2.80;1.27;;;23.80;60.80;;;;;;5101141;28;20432;-89
2024/04/04 06:02:00;;;;;;;1.83;1.17;;;23.90;61.00;;;;;;5101342;28;20446;-87
2024/04/04 06:04:26;;;;;;;1.80;0.90;;;23.80;60.80;;;;;;5083020;28;20439;-87
2024/04/04 06:06:53;;;;;;;2.37;1.20;;;23.90;61.00;;;;;;5071897;22;20554;-87
2024/04/04 06:09:19;;;;;;;3.80;1.17;;;23.90;60.70;;;;;;5058218;28;20727;-86
2024/04/04 06:11:45;;;;;;;2.00;1.10;;;24.00;60.90;;;;;;5058068;28;20449;-87
2024/04/04 06:14:13;;;;;;;5.50;1.07;;;23.90;60.80;;;;;;5057958;28;20194;-88
2024/04/04 06:16:40;;;;;;;1.70;1.03;;;23.90;60.80;;;;;;5058631;28;20433;-92
2024/04/04 06:19:06;;;;;;;2.47;1.10;;;24.00;60.80;;;;;;5058699;28;20440;-86
2024/04/04 06:21:34;;;;;;;2.33;1.30;;;24.00;60.90;;;;;;5069840;28;20465;-86
2024/04/04 06:24:00;;;;;;;2.83;1.20;;;23.90;61.00;;;;;;5075439;28;20229;-86
2024/04/04 06:26:28;;;;;;;2.20;1.30;;;24.00;61.00;;;;;;5070577;28;20452;-86
2024/04/04 06:28:59;;;;;;;2.33;1.10;;;23.90;60.90;;;;;;5067620;28;20222;-85
2024/04/04 06:31:28;;;;;;;2.57;1.37;;;23.90;60.90;;;;;;5058946;28;20967;-84
2024/04/04 06:33:53;;;;;;;2.03;1.40;;;24.00;61.00;;;;;;5057873;28;20437;-85
2024/04/04 06:36:20;;;;;;;2.20;1.13;;;23.90;61.00;;;;;;5056258;28;20869;-86
2024/04/04 06:38:46;;;;;;;2.07;1.20;;;23.90;61.00;;;;;;5057838;28;20230;-85
2024/04/04 06:41:13;;;;;;;2.83;1.43;;;23.90;60.90;;;;;;5061151;28;20441;-87
2024/04/04 06:43:39;;;;;;;2.20;1.00;;;23.90;61.10;;;;;;5059780;28;20441;-86
2024/04/04 06:46:07;;;;;;;2.03;1.07;;;23.90;61.10;;;;;;5058234;28;20471;-86
2024/04/04 06:48:40;;;;;;;2.13;1.00;;;23.90;61.10;;;;;;5059416;28;20672;-86
2024/04/04 06:51:07;;;;;;;2.20;1.00;;;24.00;61.30;;;;;;5060322;28;20536;-86
2024/04/04 06:53:33;;;;;;;1.93;1.00;;;23.90;61.20;;;;;;5060366;28;20875;-86
2024/04/04 06:56:00;;;;;;;2.13;1.10;;;23.90;61.10;;;;;;5058881;28;20472;-87
2024/04/04 06:58:25;;;;;;;1.80;1.10;;;24.00;61.20;;;;;;5059058;28;20190;-86
2024/04/04 07:00:56;;;;;;;2.57;1.10;;;23.90;61.20;;;;;;5053394;28;20449;-87
2024/04/04 07:03:22;;;;;;;1.90;1.10;;;24.00;61.60;;;;;;5050546;28;20199;-87
2024/04/04 07:05:51;;;;;;;1.70;1.00;;;24.00;61.50;;;;;;5036109;28;20478;-87
2024/04/04 07:08:16;;;;;;;2.20;1.00;;;24.00;61.40;;;;;;5075608;28;21055;-87
2024/04/04 07:10:45;;;;;;;1.67;1.00;;;24.00;61.50;;;;;;5069137;28;20445;-88
2024/04/04 07:13:11;;;;;;;2.63;1.23;;;24.00;61.50;;;;;;5069112;28;20915;-88
2024/04/04 07:15:38;;;;;;;1.90;0.90;;;24.00;61.40;;;;;;5058349;28;20473;-90
2024/04/04 07:18:08;;;;;;;2.40;0.93;;;24.00;61.50;;;;;;5055620;28;20554;-89
2024/04/04 07:20:35;;;;;;;2.17;1.00;;;24.00;61.40;;;;;;5055234;28;20532;-89
2024/04/04 07:23:02;;;;;;;1.93;1.10;;;24.00;61.40;;;;;;5055355;28;20452;-86
2024/04/04 07:25:29;;;;;;;1.83;1.10;;;24.00;61.50;;;;;;5039902;28;20490;-88
2024/04/04 07:27:54;;;;;;;1.97;1.10;;;24.00;61.50;;;;;;5039171;28;20437;-87
2024/04/04 07:30:21;;;;;;;1.93;1.23;;;24.00;61.60;;;;;;5059269;28;20456;-86
2024/04/04 07:32:47;;;;;;;5.63;1.20;;;24.00;61.20;;;;;;5038575;28;20204;-86
2024/04/04 07:35:14;;;;;;;2.17;1.00;;;24.00;61.00;;;;;;5035630;28;20960;-90
2024/04/04 07:37:40;;;;;;;1.90;1.20;;;24.10;61.60;;;;;;5036182;28;20722;-92
2024/04/04 07:40:09;;;;;;;1.80;0.90;;;24.10;61.60;;;;;;5036033;28;20548;-95
2024/04/04 07:42:35;;;;;;;2.87;1.00;;;24.00;61.50;;;;;;5037512;28;20191;-93
2024/04/04 07:45:02;;;;;;;1.80;1.00;;;24.00;61.50;;;;;;5037086;28;20446;-92
2024/04/04 07:47:28;;;;;;;2.77;0.90;;;24.10;61.60;;;;;;5036862;28;20534;-91
2024/04/04 07:49:59;;;;;;;2.10;1.03;;;24.00;61.50;;;;;;5039415;28;20488;-92
2024/04/04 07:52:25;;;;;;;1.90;1.07;;;24.00;61.50;;;;;;5036763;28;20201;-92
2024/04/04 07:54:52;;;;;;;1.93;1.17;;;23.90;61.40;;;;;;5036028;28;20477;-91
2024/04/04 08:05:07;;;;;;;2.43;1.10;;;23.90;61.50;;;;;;5059588;28;20451;-95
2024/04/04 08:07:37;;;;;;;1.87;1.20;;;23.90;61.60;;;;;;5036215;28;20442;-95
2024/04/04 08:10:07;;;;;;;1.70;0.90;;;23.90;61.60;;;;;;5041566;28;20509;-92
2024/04/04 08:12:34;;;;;;;1.93;1.03;;;23.90;61.60;;;;;;5036682;28;20447;-92
2024/04/04 08:15:03;;;;;;;3.23;1.40;;;23.90;61.60;;;;;;5028946;28;20934;-91
2024/04/04 08:17:29;;;;;;;1.50;0.80;;;23.90;61.50;;;;;;5015734;28;20447;-93
2024/04/04 08:20:03;;;;;;;2.23;1.00;;;23.90;61.60;;;;;;5016787;28;20453;-95
2024/04/04 08:25:06;;;;;;;1.80;1.00;;;23.90;61.50;;;;;;5071219;23;20517;-94
2024/04/04 08:27:31;;;;;;;1.70;1.00;;;23.90;61.50;;;;;;5055035;28;20441;-91
2024/04/04 08:29:58;;;;;;;2.17;1.20;;;23.90;61.60;;;;;;5055023;28;20480;-92
2024/04/04 08:32:24;;;;;;;2.37;1.07;;;23.90;61.60;;;;;;5054192;28;20198;-89
2024/04/04 08:34:51;;;;;;;1.70;0.90;;;23.90;61.60;;;;;;5062002;28;20451;-89
2024/04/04 08:37:16;;;;;;;1.97;1.00;;;23.90;61.50;;;;;;5074479;28;20571;-90
2024/04/04 08:39:43;;;;;;;1.50;0.90;;;24.00;61.80;;;;;;5075233;28;20445;-93
2024/04/04 08:42:11;;;;;;;2.07;1.10;;;23.90;61.60;;;;;;5074168;28;21124;-88
2024/04/04 08:44:40;;;;;;;2.23;1.10;;;24.00;61.70;;;;;;5074902;28;20466;-91
2024/04/04 08:47:10;;;;;;;1.70;0.87;;;23.90;61.50;;;;;;5073850;28;20502;-86
2024/04/04 08:49:38;;;;;;;1.70;0.90;;;23.90;61.50;;;;;;5059407;28;20485;-86
2024/04/04 08:52:04;;;;;;;1.90;1.00;;;24.00;61.60;;;;;;5053670;28;20445;-89
2024/04/04 08:54:33;;;;;;;2.17;0.90;;;24.00;61.70;;;;;;5054018;28;20511;-89
2024/04/04 08:56:59;;;;;;;2.93;0.90;;;24.10;61.70;;;;;;5054060;28;20456;-89
2024/04/04 08:59:27;;;;;;;1.57;0.90;;;24.10;61.60;;;;;;5053514;28;20477;-92
2024/04/04 09:01:53;;;;;;;1.50;0.80;;;24.00;61.50;;;;;;5054684;28;20806;-92
2024/04/04 09:04:26;;;;;;;1.47;0.80;;;24.00;61.50;;;;;;5061521;28;20527;-94
2024/04/04 09:06:52;;;;;;;2.63;0.97;;;24.00;61.50;;;;;;5084906;28;20245;-89
2024/04/04 09:09:19;;;;;;;1.73;1.00;;;24.00;61.60;;;;;;5084778;28;20473;-90
2024/04/04 09:11:45;;;;;;;1.47;0.77;;;24.10;61.60;;;;;;5063631;28;20221;-93
2024/04/04 09:14:15;;;;;;;1.60;0.90;;;24.00;61.60;;;;;;5060543;28;20484;-93
2024/04/04 09:16:43;;;;;;;1.60;0.90;;;24.00;61.60;;;;;;5060489;28;20457;-88
2024/04/04 09:19:13;;;;;;;1.67;0.80;;;24.00;61.60;;;;;;5060322;28;20796;-88
2024/04/04 09:21:40;;;;;;;2.03;0.90;;;24.00;61.70;;;;;;5060078;28;20875;-89
2024/04/04 09:24:08;;;;;;;1.83;0.70;;;24.00;61.60;;;;;;5059723;28;20530;-90
2024/04/04 09:26:36;;;;;;;1.90;1.03;;;24.00;61.60;;;;;;5059842;28;20548;-89
2024/04/04 09:29:03;;;;;;;1.60;0.90;;;24.10;61.60;;;;;;5059913;28;20473;-90
2024/04/04 09:31:33;;;;;;;2.90;1.00;;;24.10;61.60;;;;;;5060379;28;20484;-94
2024/04/04 09:34:01;;;;;;;1.50;0.80;;;24.20;61.80;;;;;;5059970;28;20445;-91
2024/04/04 09:36:30;;;;;;;1.50;0.80;;;24.10;61.60;;;;;;5061374;28;20453;-89
2024/04/04 09:38:57;;;;;;;1.50;0.80;;;24.10;61.60;;;;;;5060822;28;20452;-89
2024/04/04 09:41:25;;;;;;;1.47;0.77;;;24.10;61.50;;;;;;5060204;28;20532;-91
2024/04/04 09:43:55;;;;;;;1.83;0.87;;;24.10;61.50;;;;;;5060467;28;20441;-91
2024/04/04 09:46:22;;;;;;;1.60;1.00;;;24.10;61.50;;;;;;5060117;28;20806;-88
2024/04/04 09:48:49;;;;;;;1.97;0.90;;;24.10;61.60;;;;;;5060783;28;20476;-88
2024/04/04 09:51:18;;;;;;;1.50;0.90;;;24.20;61.70;;;;;;5059501;28;20532;-88
2024/04/04 09:53:45;;;;;;;1.70;0.80;;;24.20;61.70;;;;;;5060021;28;20461;-90
2024/04/04 09:56:13;;;;;;;1.70;0.70;;;24.10;61.50;;;;;;5059586;28;20440;-85
2024/04/04 09:58:41;;;;;;;1.50;0.80;;;24.10;61.50;;;;;;5058063;28;20952;-86
2024/04/04 10:01:19;;;;;;;1.90;1.07;;;24.10;61.60;;;;;;5059565;28;20439;-90
2024/04/04 10:03:57;;;;;;;1.60;0.90;;;24.10;61.50;;;;;;5060544;28;20436;-86
2024/04/04 10:06:33;;;;;;;1.67;0.80;;;24.10;61.50;;;;;;5059873;28;20524;-83
2024/04/04 10:09:00;;;;;;;1.40;0.80;;;24.20;61.70;;;;;;5059501;28;20512;-94
2024/04/04 10:11:30;;;;;;;1.50;0.70;;;24.20;61.70;;;;;;5059763;28;21006;-81
2024/04/04 10:14:00;;;;;;;1.70;0.90;;;24.20;61.70;;;;;;5057426;28;20441;-85
2024/04/04 10:16:35;;;;;;;1.50;0.80;;;24.20;61.60;;;;;;5056571;28;20442;-83
2024/04/04 10:19:11;;;;;;;2.03;1.03;;;24.20;61.50;;;;;;5056064;28;20449;-87
2024/04/04 10:21:39;;;;;;;1.70;0.90;;;24.20;61.60;;;;;;5047880;28;20449;-86
2024/04/04 10:24:05;;;;;;;1.50;0.80;;;24.30;61.50;;;;;;5046836;28;20478;-88
2024/04/04 10:26:32;;;;;;;1.57;0.80;;;24.30;61.50;;;;;;5036157;28;20454;-89
2024/04/04 10:28:58;;;;;;;1.73;0.90;;;24.30;61.40;;;;;;5036347;28;20485;-89
2024/04/04 10:31:25;;;;;;;1.40;0.70;;;24.30;61.50;;;;;;5036567;28;20545;-92
2024/04/04 10:34:01;;;;;;;1.40;0.60;;;24.40;61.60;;;;;;5036752;28;20609;-89
2024/04/04 10:36:39;;;;;;;1.77;0.80;;;24.30;61.50;;;;;;5036445;28;20430;-89
2024/04/04 10:39:07;;;;;;;1.50;0.90;;;24.40;61.60;;;;;;5038615;28;20426;-87
2024/04/04 10:41:34;;;;;;;1.90;0.90;;;24.30;61.40;;;;;;5039002;28;20493;-87
2024/04/04 10:44:00;;;;;;;1.40;0.80;;;24.30;61.40;;;;;;5036587;28;20782;-88
2024/04/04 10:46:26;;;;;;;2.27;0.80;;;24.30;61.40;;;;;;5035823;28;20453;-87
2024/04/04 10:48:52;;;;;;;1.60;0.90;;;24.40;62.30;;;;;;5037424;28;20212;-86
2024/04/04 10:51:19;;;;;;;1.50;0.80;;;24.50;61.60;;;;;;5056575;28;20452;-87
2024/04/04 10:53:46;;;;;;;1.60;1.00;;;24.40;61.30;;;;;;5055788;28;20218;-92
2024/04/04 10:56:23;;;;;;;1.70;1.00;;;24.50;61.40;;;;;;5038376;28;20937;-83
2024/04/04 10:58:49;;;;;;;1.50;0.70;;;24.40;62.10;;;;;;5033964;28;20481;-88
2024/04/04 11:01:16;;;;;;;1.60;0.70;;;24.40;61.20;;;;;;5035858;28;20451;-87
2024/04/04 11:03:42;;;;;;;2.00;0.80;;;24.40;61.30;;;;;;5035532;28;20446;-85
2024/04/04 11:06:09;;;;;;;1.47;0.80;;;24.50;61.30;;;;;;5036834;28;20522;-88
2024/04/04 11:08:35;;;;;;;1.50;0.73;;;24.50;61.10;;;;;;5036484;28;20438;-86
2024/04/04 11:11:04;;;;;;;1.40;0.70;;;24.50;61.00;;;;;;5035486;28;20529;-90
2024/04/04 11:13:30;;;;;;;1.63;0.90;;;24.50;61.00;;;;;;5036087;28;20442;-88
2024/04/04 11:15:57;;;;;;;2.80;0.80;;;24.50;61.00;;;;;;5035155;28;20886;-85
2024/04/04 11:18:26;;;;;;;1.53;0.70;;;24.50;61.00;;;;;;5035006;28;20457;-89
2024/04/04 11:20:55;;;;;;;1.60;0.80;;;24.50;61.00;;;;;;5034958;28;20446;-87
2024/04/04 11:23:21;;;;;;;2.93;0.87;;;24.50;61.00;;;;;;5042826;28;20475;-95
2024/04/04 11:25:48;;;;;;;1.40;0.70;;;24.60;61.20;;;;;;5072801;28;21011;-88
2024/04/04 11:28:15;;;;;;;1.50;0.70;;;24.50;61.00;;;;;;5055148;28;20191;-86
2024/04/04 11:30:41;;;;;;;1.50;0.70;;;24.50;61.10;;;;;;5054475;28;21013;-85
2024/04/04 11:33:07;;;;;;;1.50;0.70;;;24.50;61.10;;;;;;5055002;28;20445;-87
2024/04/04 11:35:35;;;;;;;1.50;0.80;;;24.50;61.20;;;;;;5054771;28;20448;-84
2024/04/04 11:38:00;;;;;;;1.87;0.90;;;24.50;61.10;;;;;;5055183;28;20566;-85
2024/04/04 11:40:27;;;;;;;1.40;0.70;;;24.50;61.20;;;;;;5056354;28;20453;-87
2024/04/04 11:42:53;;;;;;;1.97;0.83;;;24.50;61.20;;;;;;5055901;28;20252;-88
2024/04/04 11:45:21;;;;;;;1.43;0.70;;;24.60;61.30;;;;;;5056714;28;20445;-95
2024/04/04 11:47:47;;;;;;;1.50;0.80;;;24.50;62.10;;;;;;5058685;28;20206;-94
2024/04/04 11:50:14;;;;;;;1.50;0.80;;;24.50;61.20;;;;;;5055180;28;20558;-84
2024/04/04 11:52:40;;;;;;;1.63;0.70;;;24.50;61.20;;;;;;5054858;28;20442;-87
2024/04/04 11:55:07;;;;;;;1.60;0.80;;;24.50;61.10;;;;;;5054755;28;20461;-84
2024/04/04 11:57:33;;;;;;;1.63;0.70;;;24.50;61.20;;;;;;5055539;28;20198;-94
2024/04/04 12:00:00;;;;;;;1.60;0.80;;;24.50;61.10;;;;;;5055090;28;20767;-84
2024/04/04 12:02:27;;;;;;;1.50;0.80;;;24.50;60.90;;;;;;5054480;28;20202;-84
2024/04/04 12:04:58;;;;;;;1.70;0.90;;;24.60;61.10;;;;;;5054206;28;20444;-85
2024/04/04 12:07:24;;;;;;;1.80;0.90;;;24.60;61.10;;;;;;5054394;28;20460;-84
2024/04/04 12:09:51;;;;;;;1.50;0.70;;;24.60;61.10;;;;;;5055126;28;20476;-88
2024/04/04 12:12:16;;;;;;;1.60;0.90;;;24.60;61.20;;;;;;5055072;28;20195;-83
2024/04/04 12:14:44;;;;;;;1.70;0.83;;;24.60;61.20;;;;;;5055349;28;20452;-84
2024/04/04 12:17:16;;;;;;;1.50;0.77;;;24.60;61.10;;;;;;5074688;28;20199;-86
2024/04/04 12:19:44;;;;;;;1.50;0.70;;;24.70;61.20;;;;;;5078332;28;20497;-84
2024/04/04 12:22:10;;;;;;;2.13;1.00;;;24.60;61.20;;;;;;5064194;28;20426;-84
2024/04/04 12:24:37;;;;;;;2.10;0.90;;;24.60;61.20;;;;;;5052725;28;20976;-88
2024/04/04 12:27:03;;;;;;;1.60;0.87;;;24.60;61.20;;;;;;5053369;28;20191;-82
2024/04/04 12:29:31;;;;;;;1.50;0.70;;;24.70;61.30;;;;;;5053000;28;20523;-82
2024/04/04 12:31:56;;;;;;;1.80;0.77;;;24.70;61.30;;;;;;5053114;28;20449;-90
2024/04/04 12:34:23;;;;;;;1.60;0.70;;;24.70;61.30;;;;;;5052978;28;20451;-82
2024/04/04 12:36:51;;;;;;;2.30;1.27;;;24.70;61.20;;;;;;5053097;28;20855;-91
2024/04/04 12:39:19;;;;;;;1.70;0.90;;;24.70;61.20;;;;;;5053006;28;20460;-82
2024/04/04 12:41:46;;;;;;;1.67;0.77;;;24.70;61.30;;;;;;5053517;28;20433;-82
2024/04/04 12:44:12;;;;;;;1.50;0.80;;;24.70;61.20;;;;;;5053383;28;20536;-82
2024/04/04 12:46:39;;;;;;;1.50;0.80;;;24.70;61.10;;;;;;5053180;28;20935;-82
2024/04/04 12:49:07;;;;;;;1.70;0.80;;;24.70;61.10;;;;;;5053290;28;20453;-82
2024/04/04 12:51:32;;;;;;;2.47;0.90;;;24.70;61.10;;;;;;5053333;28;20433;-82
2024/04/04 12:54:03;;;;;;;1.70;0.80;;;24.70;61.20;;;;;;5053430;28;20472;-82
2024/04/04 12:56:28;;;;;;;1.40;0.60;;;24.80;61.30;;;;;;5053147;28;20194;-91
2024/04/04 12:58:55;;;;;;;1.73;0.80;;;24.70;61.00;;;;;;5053125;28;20506;-82
2024/04/04 13:01:21;;;;;;;1.60;0.80;;;24.70;61.20;;;;;;5053147;28;20653;-82